sensor_id;sensor_type;location;lat;lon;timestamp;P1;durP1;ratioP1;P2;durP2;ratioP2
52368;SDS011;38298;50.346;3.526;2022-09-21T00:00:24;10.82;;;3.28;;
52368;SDS011;38298;50.346;3.526;2022-09-21T00:02:50;6.97;;;3.40;;
52368;SDS011;38298;50.346;3.526;2022-09-21T00:05:16;8.30;;;3.50;;
52368;SDS011;38298;50.346;3.526;2022-09-21T00:07:43;9.95;;;3.10;;
52368;SDS011;38298;50.346;3.526;2022-09-21T00:10:09;6.38;;;2.90;;
52368;SDS011;38298;50.346;3.526;2022-09-21T00:12:35;4.85;;;2.95;;
52368;SDS011;38298;50.346;3.526;2022-09-21T00:15:05;6.20;;;2.92;;
52368;SDS011;38298;50.346;3.526;2022-09-21T00:17:31;5.75;;;2.85;;
52368;SDS011;38298;50.346;3.526;2022-09-21T00:19:57;7.05;;;3.17;;
52368;SDS011;38298;50.346;3.526;2022-09-21T00:22:25;9.10;;;3.05;;
52368;SDS011;38298;50.346;3.526;2022-09-21T00:24:51;6.30;;;3.17;;
52368;SDS011;38298;50.346;3.526;2022-09-21T00:27:17;7.10;;;3.35;;
52368;SDS011;38298;50.346;3.526;2022-09-21T00:29:43;5.90;;;3.28;;
52368;SDS011;38298;50.346;3.526;2022-09-21T00:32:09;8.65;;;3.40;;
52368;SDS011;38298;50.346;3.526;2022-09-21T00:34:35;8.18;;;3.92;;
52368;SDS011;38298;50.346;3.526;2022-09-21T00:37:01;8.70;;;4.15;;
52368;SDS011;38298;50.346;3.526;2022-09-21T00:39:27;6.88;;;4.32;;
52368;SDS011;38298;50.346;3.526;2022-09-21T00:41:53;10.73;;;3.53;;
52368;SDS011;38298;50.346;3.526;2022-09-21T00:44:30;5.70;;;3.58;;
52368;SDS011;38298;50.346;3.526;2022-09-21T00:47:06;8.25;;;2.97;;
52368;SDS011;38298;50.346;3.526;2022-09-21T00:49:34;7.18;;;3.45;;
52368;SDS011;38298;50.346;3.526;2022-09-21T00:52:02;8.88;;;4.05;;
52368;SDS011;38298;50.346;3.526;2022-09-21T00:54:30;6.90;;;3.63;;
52368;SDS011;38298;50.346;3.526;2022-09-21T00:57:01;5.88;;;3.60;;
52368;SDS011;38298;50.346;3.526;2022-09-21T00:59:28;5.75;;;3.58;;
52368;SDS011;38298;50.346;3.526;2022-09-21T01:01:55;9.07;;;3.70;;
52368;SDS011;38298;50.346;3.526;2022-09-21T01:04:21;4.95;;;3.20;;
52368;SDS011;38298;50.346;3.526;2022-09-21T01:06:47;6.68;;;3.55;;
52368;SDS011;38298;50.346;3.526;2022-09-21T01:09:14;7.35;;;3.35;;
52368;SDS011;38298;50.346;3.526;2022-09-21T01:11:51;5.93;;;3.60;;
52368;SDS011;38298;50.346;3.526;2022-09-21T01:29:34;8.43;;;3.40;;
52368;SDS011;38298;50.346;3.526;2022-09-21T01:34:33;8.40;;;3.60;;
52368;SDS011;38298;50.346;3.526;2022-09-21T01:37:02;7.30;;;2.97;;
52368;SDS011;38298;50.346;3.526;2022-09-21T01:39:30;6.82;;;2.97;;
52368;SDS011;38298;50.346;3.526;2022-09-21T01:41:58;5.47;;;3.10;;
52368;SDS011;38298;50.346;3.526;2022-09-21T01:44:26;4.75;;;2.90;;
52368;SDS011;38298;50.346;3.526;2022-09-21T01:46:52;6.50;;;3.20;;
52368;SDS011;38298;50.346;3.526;2022-09-21T01:49:24;5.82;;;3.20;;
52368;SDS011;38298;50.346;3.526;2022-09-21T01:51:54;7.70;;;3.22;;
52368;SDS011;38298;50.346;3.526;2022-09-21T01:54:29;3.17;;;2.60;;
52368;SDS011;38298;50.346;3.526;2022-09-21T01:59:33;7.18;;;2.88;;
52368;SDS011;38298;50.346;3.526;2022-09-21T02:02:08;4.00;;;2.70;;
52368;SDS011;38298;50.346;3.526;2022-09-21T02:04:36;4.93;;;2.80;;
52368;SDS011;38298;50.346;3.526;2022-09-21T02:07:03;5.70;;;3.08;;
52368;SDS011;38298;50.346;3.526;2022-09-21T02:09:31;9.00;;;3.40;;
52368;SDS011;38298;50.346;3.526;2022-09-21T02:11:57;5.93;;;3.03;;
52368;SDS011;38298;50.346;3.526;2022-09-21T02:14:26;7.97;;;2.95;;
52368;SDS011;38298;50.346;3.526;2022-09-21T02:19:30;10.35;;;3.92;;
52368;SDS011;38298;50.346;3.526;2022-09-21T02:22:04;7.97;;;3.35;;
52368;SDS011;38298;50.346;3.526;2022-09-21T02:27:04;4.95;;;3.20;;
52368;SDS011;38298;50.346;3.526;2022-09-21T02:29:37;5.85;;;2.83;;
52368;SDS011;38298;50.346;3.526;2022-09-21T02:32:11;4.72;;;3.20;;
52368;SDS011;38298;50.346;3.526;2022-09-21T02:34:43;5.72;;;3.00;;
52368;SDS011;38298;50.346;3.526;2022-09-21T02:37:21;7.30;;;3.03;;
52368;SDS011;38298;50.346;3.526;2022-09-21T02:42:26;6.07;;;3.00;;
52368;SDS011;38298;50.346;3.526;2022-09-21T02:44:57;11.18;;;2.80;;
52368;SDS011;38298;50.346;3.526;2022-09-21T02:47:28;5.15;;;2.60;;
52368;SDS011;38298;50.346;3.526;2022-09-21T02:49:57;8.02;;;2.75;;
52368;SDS011;38298;50.346;3.526;2022-09-21T02:52:26;6.60;;;3.30;;
52368;SDS011;38298;50.346;3.526;2022-09-21T02:54:53;4.00;;;2.78;;
52368;SDS011;38298;50.346;3.526;2022-09-21T02:57:20;5.97;;;2.92;;
52368;SDS011;38298;50.346;3.526;2022-09-21T02:59:47;7.28;;;3.08;;
52368;SDS011;38298;50.346;3.526;2022-09-21T03:02:13;5.35;;;2.65;;
52368;SDS011;38298;50.346;3.526;2022-09-21T03:04:39;7.40;;;3.17;;
52368;SDS011;38298;50.346;3.526;2022-09-21T03:07:06;4.72;;;3.55;;
52368;SDS011;38298;50.346;3.526;2022-09-21T03:09:33;8.13;;;4.30;;
52368;SDS011;38298;50.346;3.526;2022-09-21T03:11:59;9.40;;;3.92;;
52368;SDS011;38298;50.346;3.526;2022-09-21T03:14:25;9.70;;;3.53;;
52368;SDS011;38298;50.346;3.526;2022-09-21T03:16:51;6.32;;;3.38;;
52368;SDS011;38298;50.346;3.526;2022-09-21T03:19:17;7.05;;;3.70;;
52368;SDS011;38298;50.346;3.526;2022-09-21T03:21:43;5.90;;;3.35;;
52368;SDS011;38298;50.346;3.526;2022-09-21T03:24:09;7.72;;;3.58;;
52368;SDS011;38298;50.346;3.526;2022-09-21T03:26:35;11.65;;;3.58;;
52368;SDS011;38298;50.346;3.526;2022-09-21T03:29:01;5.75;;;3.30;;
52368;SDS011;38298;50.346;3.526;2022-09-21T03:31:28;9.10;;;3.97;;
52368;SDS011;38298;50.346;3.526;2022-09-21T03:33:55;8.93;;;3.78;;
52368;SDS011;38298;50.346;3.526;2022-09-21T03:36:21;5.93;;;3.78;;
52368;SDS011;38298;50.346;3.526;2022-09-21T03:38:47;5.68;;;3.58;;
52368;SDS011;38298;50.346;3.526;2022-09-21T03:41:13;13.43;;;4.35;;
52368;SDS011;38298;50.346;3.526;2022-09-21T03:43:39;6.32;;;3.85;;
52368;SDS011;38298;50.346;3.526;2022-09-21T03:46:05;10.13;;;3.97;;
52368;SDS011;38298;50.346;3.526;2022-09-21T03:48:31;11.05;;;4.03;;
52368;SDS011;38298;50.346;3.526;2022-09-21T03:50:57;10.82;;;4.70;;
52368;SDS011;38298;50.346;3.526;2022-09-21T03:53:23;6.15;;;3.90;;
52368;SDS011;38298;50.346;3.526;2022-09-21T03:55:49;10.23;;;4.15;;
52368;SDS011;38298;50.346;3.526;2022-09-21T03:58:15;6.35;;;4.47;;
52368;SDS011;38298;50.346;3.526;2022-09-21T04:00:41;7.60;;;4.85;;
52368;SDS011;38298;50.346;3.526;2022-09-21T04:03:07;9.95;;;4.78;;
52368;SDS011;38298;50.346;3.526;2022-09-21T04:05:33;7.28;;;4.65;;
52368;SDS011;38298;50.346;3.526;2022-09-21T04:07:59;10.52;;;4.75;;
52368;SDS011;38298;50.346;3.526;2022-09-21T04:10:26;9.07;;;4.88;;
52368;SDS011;38298;50.346;3.526;2022-09-21T04:12:57;12.00;;;5.57;;
52368;SDS011;38298;50.346;3.526;2022-09-21T04:15:25;8.10;;;4.65;;
52368;SDS011;38298;50.346;3.526;2022-09-21T04:17:51;9.82;;;5.10;;
52368;SDS011;38298;50.346;3.526;2022-09-21T04:20:17;11.15;;;5.40;;
52368;SDS011;38298;50.346;3.526;2022-09-21T04:22:46;7.60;;;4.45;;
52368;SDS011;38298;50.346;3.526;2022-09-21T04:25:12;11.07;;;4.97;;
52368;SDS011;38298;50.346;3.526;2022-09-21T04:27:39;10.48;;;5.03;;
52368;SDS011;38298;50.346;3.526;2022-09-21T04:30:05;14.65;;;5.45;;
52368;SDS011;38298;50.346;3.526;2022-09-21T04:32:32;13.73;;;4.80;;
52368;SDS011;38298;50.346;3.526;2022-09-21T04:34:58;8.15;;;4.75;;
52368;SDS011;38298;50.346;3.526;2022-09-21T04:37:24;8.10;;;5.22;;
52368;SDS011;38298;50.346;3.526;2022-09-21T04:39:50;10.85;;;5.60;;
52368;SDS011;38298;50.346;3.526;2022-09-21T04:42:16;12.45;;;4.85;;
52368;SDS011;38298;50.346;3.526;2022-09-21T04:44:42;16.55;;;6.10;;
52368;SDS011;38298;50.346;3.526;2022-09-21T04:47:08;8.13;;;5.03;;
52368;SDS011;38298;50.346;3.526;2022-09-21T04:49:34;12.52;;;6.00;;
52368;SDS011;38298;50.346;3.526;2022-09-21T04:52:00;13.07;;;5.93;;
52368;SDS011;38298;50.346;3.526;2022-09-21T04:54:27;10.30;;;5.35;;
52368;SDS011;38298;50.346;3.526;2022-09-21T04:56:53;12.15;;;5.45;;
52368;SDS011;38298;50.346;3.526;2022-09-21T04:59:19;13.35;;;5.72;;
52368;SDS011;38298;50.346;3.526;2022-09-21T05:01:45;9.23;;;5.45;;
52368;SDS011;38298;50.346;3.526;2022-09-21T05:04:11;10.57;;;5.57;;
52368;SDS011;38298;50.346;3.526;2022-09-21T05:06:37;16.48;;;6.30;;
52368;SDS011;38298;50.346;3.526;2022-09-21T05:09:03;11.30;;;5.60;;
52368;SDS011;38298;50.346;3.526;2022-09-21T05:11:47;9.27;;;5.80;;
52368;SDS011;38298;50.346;3.526;2022-09-21T05:14:13;14.95;;;5.93;;
52368;SDS011;38298;50.346;3.526;2022-09-21T05:16:39;11.88;;;6.03;;
52368;SDS011;38298;50.346;3.526;2022-09-21T05:19:05;12.90;;;5.80;;
52368;SDS011;38298;50.346;3.526;2022-09-21T05:21:32;13.50;;;6.13;;
52368;SDS011;38298;50.346;3.526;2022-09-21T05:23:57;11.57;;;5.78;;
52368;SDS011;38298;50.346;3.526;2022-09-21T05:26:24;10.82;;;6.32;;
52368;SDS011;38298;50.346;3.526;2022-09-21T05:28:50;16.30;;;6.10;;
52368;SDS011;38298;50.346;3.526;2022-09-21T05:36:32;11.43;;;5.68;;
52368;SDS011;38298;50.346;3.526;2022-09-21T05:39:02;14.30;;;6.25;;
52368;SDS011;38298;50.346;3.526;2022-09-21T05:41:28;15.48;;;6.72;;
52368;SDS011;38298;50.346;3.526;2022-09-21T05:43:54;10.23;;;5.68;;
52368;SDS011;38298;50.346;3.526;2022-09-21T05:57:45;10.98;;;5.90;;
52368;SDS011;38298;50.346;3.526;2022-09-21T06:00:16;13.52;;;6.32;;
52368;SDS011;38298;50.346;3.526;2022-09-21T06:02:53;10.50;;;6.35;;
52368;SDS011;38298;50.346;3.526;2022-09-21T06:05:21;10.52;;;6.25;;
52368;SDS011;38298;50.346;3.526;2022-09-21T06:07:47;11.00;;;6.60;;
52368;SDS011;38298;50.346;3.526;2022-09-21T06:10:13;11.23;;;6.45;;
52368;SDS011;38298;50.346;3.526;2022-09-21T06:12:40;11.80;;;6.63;;
52368;SDS011;38298;50.346;3.526;2022-09-21T06:15:07;11.38;;;6.70;;
52368;SDS011;38298;50.346;3.526;2022-09-21T06:17:35;12.05;;;7.10;;
52368;SDS011;38298;50.346;3.526;2022-09-21T06:20:01;13.80;;;6.47;;
52368;SDS011;38298;50.346;3.526;2022-09-21T06:22:28;12.65;;;6.70;;
52368;SDS011;38298;50.346;3.526;2022-09-21T06:24:54;13.10;;;7.18;;
52368;SDS011;38298;50.346;3.526;2022-09-21T06:27:19;14.27;;;7.68;;
52368;SDS011;38298;50.346;3.526;2022-09-21T06:29:45;14.80;;;7.60;;
52368;SDS011;38298;50.346;3.526;2022-09-21T06:32:11;16.15;;;7.40;;
52368;SDS011;38298;50.346;3.526;2022-09-21T06:34:37;14.70;;;7.88;;
52368;SDS011;38298;50.346;3.526;2022-09-21T06:37:03;14.02;;;7.72;;
52368;SDS011;38298;50.346;3.526;2022-09-21T06:39:29;14.25;;;7.93;;
52368;SDS011;38298;50.346;3.526;2022-09-21T06:41:55;13.43;;;7.72;;
52368;SDS011;38298;50.346;3.526;2022-09-21T06:44:23;15.65;;;8.18;;
52368;SDS011;38298;50.346;3.526;2022-09-21T06:46:49;13.27;;;8.07;;
52368;SDS011;38298;50.346;3.526;2022-09-21T06:49:15;15.88;;;7.63;;
52368;SDS011;38298;50.346;3.526;2022-09-21T06:51:41;15.10;;;8.13;;
52368;SDS011;38298;50.346;3.526;2022-09-21T06:54:07;15.18;;;8.40;;
52368;SDS011;38298;50.346;3.526;2022-09-21T06:56:33;14.68;;;8.15;;
52368;SDS011;38298;50.346;3.526;2022-09-21T06:58:59;22.27;;;8.57;;
52368;SDS011;38298;50.346;3.526;2022-09-21T07:01:26;15.32;;;7.72;;
52368;SDS011;38298;50.346;3.526;2022-09-21T07:03:52;16.77;;;8.27;;
52368;SDS011;38298;50.346;3.526;2022-09-21T07:06:18;17.73;;;7.82;;
52368;SDS011;38298;50.346;3.526;2022-09-21T07:08:44;16.65;;;8.45;;
52368;SDS011;38298;50.346;3.526;2022-09-21T07:11:11;12.73;;;7.35;;
52368;SDS011;38298;50.346;3.526;2022-09-21T07:13:38;16.98;;;8.68;;
52368;SDS011;38298;50.346;3.526;2022-09-21T07:16:04;18.48;;;7.90;;
52368;SDS011;38298;50.346;3.526;2022-09-21T07:18:31;14.57;;;7.72;;
52368;SDS011;38298;50.346;3.526;2022-09-21T07:21:00;16.65;;;7.93;;
52368;SDS011;38298;50.346;3.526;2022-09-21T07:23:27;17.98;;;7.93;;
52368;SDS011;38298;50.346;3.526;2022-09-21T07:25:53;13.38;;;7.15;;
52368;SDS011;38298;50.346;3.526;2022-09-21T07:28:19;15.77;;;8.02;;
52368;SDS011;38298;50.346;3.526;2022-09-21T07:30:45;13.52;;;8.32;;
52368;SDS011;38298;50.346;3.526;2022-09-21T07:33:11;13.95;;;6.97;;
52368;SDS011;38298;50.346;3.526;2022-09-21T07:35:37;12.93;;;7.00;;
52368;SDS011;38298;50.346;3.526;2022-09-21T07:38:05;10.75;;;6.80;;
52368;SDS011;38298;50.346;3.526;2022-09-21T07:40:31;10.18;;;7.20;;
52368;SDS011;38298;50.346;3.526;2022-09-21T07:42:57;10.93;;;7.20;;
52368;SDS011;38298;50.346;3.526;2022-09-21T07:45:24;13.02;;;7.65;;
52368;SDS011;38298;50.346;3.526;2022-09-21T07:47:51;15.93;;;7.57;;
52368;SDS011;38298;50.346;3.526;2022-09-21T07:50:20;16.05;;;8.60;;
52368;SDS011;38298;50.346;3.526;2022-09-21T07:52:46;18.02;;;7.75;;
52368;SDS011;38298;50.346;3.526;2022-09-21T07:55:13;18.05;;;8.85;;
52368;SDS011;38298;50.346;3.526;2022-09-21T07:57:39;15.45;;;9.05;;
52368;SDS011;38298;50.346;3.526;2022-09-21T08:00:24;14.23;;;8.18;;
52368;SDS011;38298;50.346;3.526;2022-09-21T08:02:52;18.60;;;8.85;;
52368;SDS011;38298;50.346;3.526;2022-09-21T08:05:18;22.35;;;8.70;;
52368;SDS011;38298;50.346;3.526;2022-09-21T08:07:44;20.30;;;9.05;;
52368;SDS011;38298;50.346;3.526;2022-09-21T08:10:10;25.17;;;9.85;;
52368;SDS011;38298;50.346;3.526;2022-09-21T08:12:37;21.90;;;9.60;;
52368;SDS011;38298;50.346;3.526;2022-09-21T08:15:03;34.60;;;9.68;;
52368;SDS011;38298;50.346;3.526;2022-09-21T08:17:29;23.27;;;10.35;;
52368;SDS011;38298;50.346;3.526;2022-09-21T08:19:55;17.98;;;9.32;;
52368;SDS011;38298;50.346;3.526;2022-09-21T08:22:21;22.60;;;10.48;;
52368;SDS011;38298;50.346;3.526;2022-09-21T08:24:49;28.95;;;11.05;;
52368;SDS011;38298;50.346;3.526;2022-09-21T08:27:16;23.85;;;10.95;;
52368;SDS011;38298;50.346;3.526;2022-09-21T08:29:44;31.85;;;11.98;;
52368;SDS011;38298;50.346;3.526;2022-09-21T08:32:10;24.15;;;12.15;;
52368;SDS011;38298;50.346;3.526;2022-09-21T08:34:36;24.88;;;11.13;;
52368;SDS011;38298;50.346;3.526;2022-09-21T08:37:02;25.13;;;11.13;;
52368;SDS011;38298;50.346;3.526;2022-09-21T08:39:28;31.73;;;12.38;;
52368;SDS011;38298;50.346;3.526;2022-09-21T08:44:21;23.33;;;10.88;;
52368;SDS011;38298;50.346;3.526;2022-09-21T08:46:51;23.40;;;10.23;;
52368;SDS011;38298;50.346;3.526;2022-09-21T08:49:20;23.63;;;10.88;;
52368;SDS011;38298;50.346;3.526;2022-09-21T08:51:52;21.50;;;9.85;;
52368;SDS011;38298;50.346;3.526;2022-09-21T08:57:07;22.73;;;9.95;;
52368;SDS011;38298;50.346;3.526;2022-09-21T08:59:36;16.35;;;8.43;;
52368;SDS011;38298;50.346;3.526;2022-09-21T09:02:48;16.70;;;8.60;;
52368;SDS011;38298;50.346;3.526;2022-09-21T09:18:08;18.20;;;8.80;;
52368;SDS011;38298;50.346;3.526;2022-09-21T09:20:48;15.88;;;7.93;;
52368;SDS011;38298;50.346;3.526;2022-09-21T09:25:48;16.27;;;7.38;;
52368;SDS011;38298;50.346;3.526;2022-09-21T09:30:50;14.07;;;7.55;;
52368;SDS011;38298;50.346;3.526;2022-09-21T09:33:21;14.00;;;6.90;;
52368;SDS011;38298;50.346;3.526;2022-09-21T09:38:25;15.98;;;6.97;;
52368;SDS011;38298;50.346;3.526;2022-09-21T09:46:10;15.45;;;4.47;;
52368;SDS011;38298;50.346;3.526;2022-09-21T09:51:10;15.98;;;6.65;;
52368;SDS011;38298;50.346;3.526;2022-09-21T09:53:36;16.40;;;5.53;;
52368;SDS011;38298;50.346;3.526;2022-09-21T09:56:03;11.38;;;5.15;;
52368;SDS011;38298;50.346;3.526;2022-09-21T10:00:55;15.43;;;5.18;;
52368;SDS011;38298;50.346;3.526;2022-09-21T10:03:22;9.02;;;3.75;;
52368;SDS011;38298;50.346;3.526;2022-09-21T10:05:48;14.02;;;4.20;;
52368;SDS011;38298;50.346;3.526;2022-09-21T10:10:56;11.15;;;3.75;;
52368;SDS011;38298;50.346;3.526;2022-09-21T10:15:49;9.80;;;3.63;;
52368;SDS011;38298;50.346;3.526;2022-09-21T10:18:16;11.90;;;3.67;;
52368;SDS011;38298;50.346;3.526;2022-09-21T10:20:51;11.07;;;3.50;;
52368;SDS011;38298;50.346;3.526;2022-09-21T10:23:18;6.70;;;3.17;;
52368;SDS011;38298;50.346;3.526;2022-09-21T10:25:47;10.65;;;2.95;;
52368;SDS011;38298;50.346;3.526;2022-09-21T10:28:17;8.57;;;3.30;;
52368;SDS011;38298;50.346;3.526;2022-09-21T10:30:44;5.88;;;3.30;;
52368;SDS011;38298;50.346;3.526;2022-09-21T10:33:19;8.70;;;3.22;;
52368;SDS011;38298;50.346;3.526;2022-09-21T10:35:49;6.75;;;2.67;;
52368;SDS011;38298;50.346;3.526;2022-09-21T10:38:16;5.95;;;2.80;;
52368;SDS011;38298;50.346;3.526;2022-09-21T10:40:43;5.43;;;2.05;;
52368;SDS011;38298;50.346;3.526;2022-09-21T10:43:23;6.43;;;2.53;;
52368;SDS011;38298;50.346;3.526;2022-09-21T10:45:53;8.85;;;2.40;;
52368;SDS011;38298;50.346;3.526;2022-09-21T10:48:20;7.07;;;2.40;;
52368;SDS011;38298;50.346;3.526;2022-09-21T10:50:47;5.80;;;2.42;;
52368;SDS011;38298;50.346;3.526;2022-09-21T10:55:56;4.03;;;1.50;;
52368;SDS011;38298;50.346;3.526;2022-09-21T10:58:23;4.47;;;1.48;;
52368;SDS011;38298;50.346;3.526;2022-09-21T11:00:50;6.25;;;1.38;;
52368;SDS011;38298;50.346;3.526;2022-09-21T11:03:41;5.32;;;1.40;;
52368;SDS011;38298;50.346;3.526;2022-09-21T11:13:49;3.83;;;1.58;;
52368;SDS011;38298;50.346;3.526;2022-09-21T11:16:31;3.20;;;1.17;;
52368;SDS011;38298;50.346;3.526;2022-09-21T11:19:10;6.45;;;1.45;;
52368;SDS011;38298;50.346;3.526;2022-09-21T11:21:46;4.53;;;1.33;;
52368;SDS011;38298;50.346;3.526;2022-09-21T11:27:05;6.47;;;1.55;;
52368;SDS011;38298;50.346;3.526;2022-09-21T11:32:32;7.90;;;1.67;;
52368;SDS011;38298;50.346;3.526;2022-09-21T11:43:23;5.68;;;1.40;;
52368;SDS011;38298;50.346;3.526;2022-09-21T11:58:53;3.03;;;1.30;;
52368;SDS011;38298;50.346;3.526;2022-09-21T12:01:47;7.03;;;1.55;;
52368;SDS011;38298;50.346;3.526;2022-09-21T12:12:26;4.07;;;1.52;;
52368;SDS011;38298;50.346;3.526;2022-09-21T12:19:55;3.97;;;1.40;;
52368;SDS011;38298;50.346;3.526;2022-09-21T12:22:34;2.38;;;1.38;;
52368;SDS011;38298;50.346;3.526;2022-09-21T12:25:03;8.93;;;1.23;;
52368;SDS011;38298;50.346;3.526;2022-09-21T12:27:42;5.13;;;1.10;;
52368;SDS011;38298;50.346;3.526;2022-09-21T12:30:13;6.53;;;1.00;;
52368;SDS011;38298;50.346;3.526;2022-09-21T12:35:14;5.57;;;0.90;;
52368;SDS011;38298;50.346;3.526;2022-09-21T12:37:45;8.07;;;0.80;;
52368;SDS011;38298;50.346;3.526;2022-09-21T12:40:17;5.15;;;0.75;;
52368;SDS011;38298;50.346;3.526;2022-09-21T12:42:50;4.32;;;0.88;;
52368;SDS011;38298;50.346;3.526;2022-09-21T12:45:22;5.28;;;1.15;;
52368;SDS011;38298;50.346;3.526;2022-09-21T12:52:48;7.07;;;1.20;;
52368;SDS011;38298;50.346;3.526;2022-09-21T13:00:33;4.75;;;1.10;;
52368;SDS011;38298;50.346;3.526;2022-09-21T13:03:06;10.32;;;1.85;;
52368;SDS011;38298;50.346;3.526;2022-09-21T13:05:37;9.15;;;2.20;;
52368;SDS011;38298;50.346;3.526;2022-09-21T13:08:12;8.50;;;3.58;;
52368;SDS011;38298;50.346;3.526;2022-09-21T13:10:47;16.63;;;4.30;;
52368;SDS011;38298;50.346;3.526;2022-09-21T13:15:56;12.55;;;4.00;;
52368;SDS011;38298;50.346;3.526;2022-09-21T13:20:49;14.10;;;4.70;;
52368;SDS011;38298;50.346;3.526;2022-09-21T13:23:19;9.55;;;3.50;;
52368;SDS011;38298;50.346;3.526;2022-09-21T13:25:47;9.50;;;3.67;;
52368;SDS011;38298;50.346;3.526;2022-09-21T13:38:32;9.90;;;2.25;;
52368;SDS011;38298;50.346;3.526;2022-09-21T13:41:02;9.93;;;1.80;;
52368;SDS011;38298;50.346;3.526;2022-09-21T13:43:58;5.72;;;2.13;;
52368;SDS011;38298;50.346;3.526;2022-09-21T13:54:34;6.45;;;2.08;;
52368;SDS011;38298;50.346;3.526;2022-09-21T13:57:15;8.88;;;2.72;;
52368;SDS011;38298;50.346;3.526;2022-09-21T13:59:42;10.57;;;2.38;;
52368;SDS011;38298;50.346;3.526;2022-09-21T14:07:31;3.97;;;2.10;;
52368;SDS011;38298;50.346;3.526;2022-09-21T14:09:59;9.63;;;2.20;;
52368;SDS011;38298;50.346;3.526;2022-09-21T14:12:26;6.28;;;2.08;;
52368;SDS011;38298;50.346;3.526;2022-09-21T14:17:37;6.90;;;1.77;;
52368;SDS011;38298;50.346;3.526;2022-09-21T14:20:05;6.45;;;1.70;;
52368;SDS011;38298;50.346;3.526;2022-09-21T14:22:32;6.68;;;1.95;;
52368;SDS011;38298;50.346;3.526;2022-09-21T14:27:43;5.57;;;2.00;;
52368;SDS011;38298;50.346;3.526;2022-09-21T14:30:26;9.13;;;2.97;;
52368;SDS011;38298;50.346;3.526;2022-09-21T14:35:30;6.70;;;2.58;;
52368;SDS011;38298;50.346;3.526;2022-09-21T14:38:01;10.63;;;2.70;;
52368;SDS011;38298;50.346;3.526;2022-09-21T14:40:33;7.25;;;2.55;;
52368;SDS011;38298;50.346;3.526;2022-09-21T14:43:07;5.20;;;2.50;;
52368;SDS011;38298;50.346;3.526;2022-09-21T14:48:03;9.90;;;2.22;;
52368;SDS011;38298;50.346;3.526;2022-09-21T14:50:32;4.25;;;1.80;;
52368;SDS011;38298;50.346;3.526;2022-09-21T14:53:17;4.80;;;2.23;;
52368;SDS011;38298;50.346;3.526;2022-09-21T15:12:52;3.42;;;1.35;;
52368;SDS011;38298;50.346;3.526;2022-09-21T15:17:53;3.05;;;1.20;;
52368;SDS011;38298;50.346;3.526;2022-09-21T15:20:21;7.07;;;1.35;;
52368;SDS011;38298;50.346;3.526;2022-09-21T15:22:47;7.13;;;1.20;;
52368;SDS011;38298;50.346;3.526;2022-09-21T15:25:13;2.25;;;0.90;;
52368;SDS011;38298;50.346;3.526;2022-09-21T15:27:43;4.70;;;1.23;;
52368;SDS011;38298;50.346;3.526;2022-09-21T15:30:17;3.20;;;1.10;;
52368;SDS011;38298;50.346;3.526;2022-09-21T15:32:45;4.00;;;1.10;;
52368;SDS011;38298;50.346;3.526;2022-09-21T15:35:22;6.05;;;0.95;;
52368;SDS011;38298;50.346;3.526;2022-09-21T15:37:51;3.30;;;0.93;;
52368;SDS011;38298;50.346;3.526;2022-09-21T15:45:33;2.15;;;0.90;;
52368;SDS011;38298;50.346;3.526;2022-09-21T15:48:01;3.00;;;0.80;;
52368;SDS011;38298;50.346;3.526;2022-09-21T15:50:31;2.03;;;0.63;;
52368;SDS011;38298;50.346;3.526;2022-09-21T15:52:59;7.57;;;1.08;;
52368;SDS011;38298;50.346;3.526;2022-09-21T15:55:28;6.90;;;1.30;;
52368;SDS011;38298;50.346;3.526;2022-09-21T15:57:55;2.47;;;1.05;;
52368;SDS011;38298;50.346;3.526;2022-09-21T16:00:26;3.38;;;1.17;;
52368;SDS011;38298;50.346;3.526;2022-09-21T16:02:58;2.92;;;1.30;;
52368;SDS011;38298;50.346;3.526;2022-09-21T16:05:29;3.45;;;1.40;;
52368;SDS011;38298;50.346;3.526;2022-09-21T16:13:37;3.97;;;1.02;;
52368;SDS011;38298;50.346;3.526;2022-09-21T16:16:04;5.43;;;1.00;;
52368;SDS011;38298;50.346;3.526;2022-09-21T16:18:31;4.05;;;0.95;;
52368;SDS011;38298;50.346;3.526;2022-09-21T16:21:06;3.13;;;0.80;;
52368;SDS011;38298;50.346;3.526;2022-09-21T16:23:33;4.50;;;0.70;;
52368;SDS011;38298;50.346;3.526;2022-09-21T16:26:03;3.10;;;0.93;;
52368;SDS011;38298;50.346;3.526;2022-09-21T16:28:34;3.10;;;0.95;;
52368;SDS011;38298;50.346;3.526;2022-09-21T16:31:05;6.10;;;1.00;;
52368;SDS011;38298;50.346;3.526;2022-09-21T16:38:44;2.10;;;0.80;;
52368;SDS011;38298;50.346;3.526;2022-09-21T16:41:14;5.18;;;0.90;;
52368;SDS011;38298;50.346;3.526;2022-09-21T16:43:41;4.07;;;1.38;;
52368;SDS011;38298;50.346;3.526;2022-09-21T16:46:13;4.28;;;0.77;;
52368;SDS011;38298;50.346;3.526;2022-09-21T16:48:39;4.75;;;0.88;;
52368;SDS011;38298;50.346;3.526;2022-09-21T16:51:10;1.60;;;0.75;;
52368;SDS011;38298;50.346;3.526;2022-09-21T16:53:36;6.88;;;1.15;;
52368;SDS011;38298;50.346;3.526;2022-09-21T16:56:02;5.78;;;1.20;;
52368;SDS011;38298;50.346;3.526;2022-09-21T16:58:29;4.15;;;1.05;;
52368;SDS011;38298;50.346;3.526;2022-09-21T17:00:55;3.08;;;0.93;;
52368;SDS011;38298;50.346;3.526;2022-09-21T17:03:22;4.90;;;0.90;;
52368;SDS011;38298;50.346;3.526;2022-09-21T17:05:48;3.75;;;0.73;;
52368;SDS011;38298;50.346;3.526;2022-09-21T17:08:14;3.97;;;1.45;;
52368;SDS011;38298;50.346;3.526;2022-09-21T17:10:43;2.65;;;1.05;;
52368;SDS011;38298;50.346;3.526;2022-09-21T17:13:10;7.28;;;0.85;;
52368;SDS011;38298;50.346;3.526;2022-09-21T17:15:40;2.58;;;0.95;;
52368;SDS011;38298;50.346;3.526;2022-09-21T17:18:09;2.70;;;0.87;;
52368;SDS011;38298;50.346;3.526;2022-09-21T17:20:36;6.35;;;1.02;;
52368;SDS011;38298;50.346;3.526;2022-09-21T17:23:03;4.03;;;0.82;;
52368;SDS011;38298;50.346;3.526;2022-09-21T17:25:29;2.80;;;1.00;;
52368;SDS011;38298;50.346;3.526;2022-09-21T17:27:57;6.60;;;0.82;;
52368;SDS011;38298;50.346;3.526;2022-09-21T17:30:23;4.35;;;1.08;;
52368;SDS011;38298;50.346;3.526;2022-09-21T17:32:50;5.35;;;0.80;;
52368;SDS011;38298;50.346;3.526;2022-09-21T17:35:18;3.88;;;0.85;;
52368;SDS011;38298;50.346;3.526;2022-09-21T17:37:46;3.97;;;1.10;;
52368;SDS011;38298;50.346;3.526;2022-09-21T17:40:13;2.08;;;0.90;;
52368;SDS011;38298;50.346;3.526;2022-09-21T17:42:39;6.88;;;1.08;;
52368;SDS011;38298;50.346;3.526;2022-09-21T17:47:50;6.40;;;1.30;;
52368;SDS011;38298;50.346;3.526;2022-09-21T17:50:22;2.80;;;1.08;;
52368;SDS011;38298;50.346;3.526;2022-09-21T17:52:54;4.20;;;1.10;;
52368;SDS011;38298;50.346;3.526;2022-09-21T17:55:42;6.43;;;1.23;;
52368;SDS011;38298;50.346;3.526;2022-09-21T18:01:00;7.97;;;1.40;;
52368;SDS011;38298;50.346;3.526;2022-09-21T18:03:28;5.40;;;1.50;;
52368;SDS011;38298;50.346;3.526;2022-09-21T18:05:55;6.50;;;1.70;;
52368;SDS011;38298;50.346;3.526;2022-09-21T18:08:23;6.57;;;1.75;;
52368;SDS011;38298;50.346;3.526;2022-09-21T18:18:41;5.63;;;2.00;;
52368;SDS011;38298;50.346;3.526;2022-09-21T18:21:12;5.53;;;1.80;;
52368;SDS011;38298;50.346;3.526;2022-09-21T18:26:10;9.80;;;2.70;;
52368;SDS011;38298;50.346;3.526;2022-09-21T18:28:46;7.88;;;2.17;;
52368;SDS011;38298;50.346;3.526;2022-09-21T18:37:00;4.55;;;2.45;;
52368;SDS011;38298;50.346;3.526;2022-09-21T18:42:07;5.63;;;2.53;;
52368;SDS011;38298;50.346;3.526;2022-09-21T18:47:11;6.30;;;2.70;;
52368;SDS011;38298;50.346;3.526;2022-09-21T18:54:51;7.63;;;2.58;;
52368;SDS011;38298;50.346;3.526;2022-09-21T18:57:17;7.60;;;2.60;;
52368;SDS011;38298;50.346;3.526;2022-09-21T18:59:43;5.57;;;2.17;;
52368;SDS011;38298;50.346;3.526;2022-09-21T19:02:10;5.63;;;2.40;;
52368;SDS011;38298;50.346;3.526;2022-09-21T19:04:38;11.80;;;2.63;;
52368;SDS011;38298;50.346;3.526;2022-09-21T19:23:01;10.07;;;3.50;;